createdAt,value
2018-10-03T00:00:36.912Z,12.60
2018-10-03T00:03:04.609Z,12.60
2018-10-03T00:05:32.300Z,12.70
2018-10-03T00:07:59.995Z,12.70
2018-10-03T00:10:27.700Z,12.70
2018-10-03T00:12:55.396Z,12.70
2018-10-03T00:15:23.112Z,12.70
2018-10-03T00:17:50.814Z,12.70
2018-10-03T00:20:18.516Z,12.70
2018-10-03T00:22:46.229Z,12.60
2018-10-03T00:25:13.910Z,12.60
2018-10-03T00:27:41.613Z,12.60
2018-10-03T00:30:09.356Z,12.70
2018-10-03T00:32:37.035Z,12.60
2018-10-03T00:35:04.771Z,12.60
2018-10-03T00:37:32.448Z,12.50
2018-10-03T00:40:00.441Z,12.50
2018-10-03T00:42:28.996Z,12.50
2018-10-03T00:44:56.678Z,12.50
2018-10-03T00:47:24.356Z,12.50
2018-10-03T00:49:52.058Z,12.50
2018-10-03T00:52:19.713Z,12.40
2018-10-03T00:54:47.439Z,12.50
2018-10-03T00:57:15.173Z,12.40
2018-10-03T00:59:42.882Z,12.30
2018-10-03T01:02:10.899Z,12.20
2018-10-03T01:04:38.649Z,12.30
2018-10-03T01:07:06.429Z,12.30
2018-10-03T01:09:34.725Z,12.40
2018-10-03T01:12:02.404Z,12.40
2018-10-03T01:14:30.073Z,12.40
2018-10-03T01:16:57.806Z,12.40
2018-10-03T01:19:25.545Z,12.30
2018-10-03T01:21:53.296Z,12.30
2018-10-03T01:24:21.085Z,12.30
2018-10-03T01:26:48.821Z,12.30
2018-10-03T01:29:16.504Z,12.30
2018-10-03T01:31:44.164Z,12.20
2018-10-03T01:34:11.865Z,12.10
2018-10-03T01:36:39.597Z,12.10
2018-10-03T01:39:07.821Z,12.00
2018-10-03T01:41:37.025Z,11.90
2018-10-03T01:44:04.730Z,11.90
2018-10-03T01:46:32.466Z,12.00
2018-10-03T01:49:00.113Z,12.00
2018-10-03T01:51:27.864Z,12.00
2018-10-03T01:53:55.541Z,11.90
2018-10-03T01:56:23.245Z,11.90
2018-10-03T01:58:50.937Z,12.10
2018-10-03T02:01:18.591Z,12.00
2018-10-03T02:03:46.273Z,11.00
2018-10-03T02:06:13.964Z,12.20
2018-10-03T02:08:41.658Z,12.20
2018-10-03T02:11:09.316Z,12.20
2018-10-03T02:13:37.019Z,12.20
2018-10-03T02:16:04.660Z,12.10
2018-10-03T02:18:32.348Z,12.10
2018-10-03T02:21:00.021Z,12.10
2018-10-03T02:23:27.685Z,12.10
2018-10-03T02:25:55.386Z,12.00
2018-10-03T02:28:23.033Z,12.00
2018-10-03T02:30:50.710Z,12.00
2018-10-03T02:33:18.366Z,11.90
2018-10-03T02:35:46.062Z,11.90
2018-10-03T02:38:13.786Z,11.90
2018-10-03T02:40:41.541Z,11.80
2018-10-03T02:43:09.186Z,11.90
2018-10-03T02:45:36.887Z,11.80
2018-10-03T02:48:04.536Z,11.70
2018-10-03T02:50:32.207Z,11.60
2018-10-03T02:52:59.909Z,11.60
2018-10-03T02:55:27.598Z,11.50
2018-10-03T02:57:55.286Z,11.50
2018-10-03T03:00:23.040Z,11.50
2018-10-03T03:02:50.873Z,11.40
2018-10-03T03:05:18.554Z,11.40
2018-10-03T03:07:46.249Z,11.40
2018-10-03T03:10:13.936Z,11.40
2018-10-03T03:12:41.593Z,11.40
2018-10-03T03:15:09.335Z,11.40
2018-10-03T03:17:37.055Z,11.40
2018-10-03T03:20:04.766Z,11.50
2018-10-03T03:22:32.498Z,11.60
2018-10-03T03:25:00.185Z,11.70
2018-10-03T03:27:27.892Z,11.70
2018-10-03T03:29:55.573Z,11.70
2018-10-03T03:32:23.216Z,11.60
2018-10-03T03:34:50.860Z,11.50
2018-10-03T03:37:18.521Z,11.30
2018-10-03T03:39:46.233Z,11.30
2018-10-03T03:42:13.921Z,11.20
2018-10-03T03:44:41.596Z,11.10
2018-10-03T03:47:09.306Z,11.10
2018-10-03T03:49:36.965Z,11.10
2018-10-03T03:52:04.715Z,11.00
2018-10-03T03:54:32.477Z,11.00
2018-10-03T03:57:00.195Z,11.00
2018-10-03T03:59:28.144Z,11.10
2018-10-03T04:01:56.883Z,11.20
2018-10-03T04:04:25.034Z,11.20
2018-10-03T04:06:52.689Z,11.20
2018-10-03T04:09:20.357Z,11.20
2018-10-03T04:11:48.030Z,11.20
2018-10-03T04:14:15.711Z,11.10
2018-10-03T04:16:43.382Z,11.00
2018-10-03T04:19:11.332Z,10.90
2018-10-03T04:21:41.127Z,10.90
2018-10-03T04:24:09.978Z,10.80
2018-10-03T04:26:38.046Z,10.80
2018-10-03T04:29:05.909Z,10.80
2018-10-03T04:31:34.351Z,10.70
2018-10-03T04:34:02.438Z,10.70
2018-10-03T04:36:30.910Z,10.70
2018-10-03T04:38:58.613Z,10.70
2018-10-03T04:41:26.313Z,10.50
2018-10-03T04:43:54.009Z,10.50
2018-10-03T04:46:22.070Z,10.40
2018-10-03T04:48:49.824Z,10.50
2018-10-03T04:51:17.890Z,10.50
2018-10-03T04:53:45.548Z,10.50
2018-10-03T04:56:13.285Z,10.40
2018-10-03T04:58:40.970Z,10.40
2018-10-03T05:01:09.459Z,10.40
2018-10-03T05:03:38.409Z,10.20
2018-10-03T05:06:06.334Z,10.20
2018-10-03T05:08:34.046Z,10.20
2018-10-03T05:11:01.747Z,10.10
2018-10-03T05:13:29.411Z,10.20
2018-10-03T05:15:57.133Z,10.20
2018-10-03T05:18:24.934Z,10.20
2018-10-03T05:20:52.635Z,10.10
2018-10-03T05:23:20.312Z,10.10
2018-10-03T05:25:47.993Z,10.00
2018-10-03T05:28:15.665Z,10.00
2018-10-03T05:30:43.357Z,10.00
2018-10-03T05:33:11.075Z,10.00
2018-10-03T05:35:38.713Z,10.00
2018-10-03T05:38:06.441Z,9.90
2018-10-03T05:40:34.114Z,9.90
2018-10-03T05:43:01.997Z,9.90
2018-10-03T05:45:29.654Z,9.80
2018-10-03T05:47:57.397Z,9.90
2018-10-03T05:50:25.155Z,9.90
2018-10-03T05:52:52.894Z,9.90
2018-10-03T05:55:20.593Z,9.80
2018-10-03T05:57:48.310Z,9.80
2018-10-03T06:00:16.005Z,9.80
2018-10-03T06:02:43.728Z,9.80
2018-10-03T06:05:11.392Z,9.80
2018-10-03T06:07:39.073Z,9.80
2018-10-03T06:10:07.038Z,9.90
2018-10-03T06:12:34.851Z,9.90
2018-10-03T06:15:02.651Z,10.00
2018-10-03T06:17:30.322Z,10.00
2018-10-03T06:19:58.067Z,10.10
2018-10-03T06:22:25.817Z,10.00
2018-10-03T06:24:53.523Z,10.10
2018-10-03T06:27:21.221Z,10.10
2018-10-03T06:29:48.970Z,10.20
2018-10-03T06:32:16.673Z,10.20
2018-10-03T06:34:44.341Z,10.20
2018-10-03T06:37:12.323Z,10.10
2018-10-03T06:39:40.068Z,10.20
2018-10-03T06:42:07.757Z,10.30
2018-10-03T06:44:35.396Z,10.30
2018-10-03T06:47:03.133Z,10.30
2018-10-03T06:49:30.854Z,10.40
2018-10-03T06:51:58.539Z,10.50
2018-10-03T06:54:26.225Z,10.50
2018-10-03T06:56:53.930Z,10.50
2018-10-03T06:59:21.638Z,10.70
2018-10-03T07:01:49.321Z,10.70
2018-10-03T07:04:17.005Z,10.80
2018-10-03T07:06:44.716Z,11.00
2018-10-03T07:09:12.359Z,11.10
2018-10-03T07:11:40.074Z,11.20
2018-10-03T07:14:07.762Z,11.10
2018-10-03T07:16:35.450Z,11.00
2018-10-03T07:19:03.138Z,11.20
2018-10-03T07:21:30.796Z,11.20
2018-10-03T07:23:58.666Z,11.20
2018-10-03T07:26:26.549Z,11.30
2018-10-03T07:28:54.232Z,11.40
2018-10-03T07:31:22.862Z,11.60
2018-10-03T07:33:50.568Z,11.90
2018-10-03T07:36:18.256Z,12.50
2018-10-03T07:38:45.937Z,12.80
2018-10-03T07:41:13.625Z,13.30
2018-10-03T07:43:41.340Z,13.50
2018-10-03T07:46:09.029Z,13.70
2018-10-03T07:48:36.732Z,13.60
2018-10-03T07:51:04.462Z,13.80
2018-10-03T07:53:32.484Z,14.00
2018-10-03T07:56:00.125Z,14.00
2018-10-03T07:58:32.676Z,14.40
2018-10-03T08:01:00.417Z,14.10
2018-10-03T08:03:28.105Z,13.50
2018-10-03T08:05:55.834Z,13.20
2018-10-03T08:08:23.718Z,13.00
2018-10-03T08:10:51.535Z,13.10
2018-10-03T08:13:19.287Z,13.10
2018-10-03T08:15:47.057Z,13.10
2018-10-03T08:18:14.896Z,13.10
2018-10-03T08:20:43.742Z,13.00
2018-10-03T08:23:11.544Z,13.00
2018-10-03T08:25:39.241Z,13.10
2018-10-03T08:28:06.996Z,13.20
2018-10-03T08:30:34.727Z,13.40
2018-10-03T08:33:02.637Z,13.20
2018-10-03T08:35:30.166Z,13.50
2018-10-03T08:37:57.868Z,13.80
2018-10-03T08:40:25.642Z,13.50
2018-10-03T08:42:54.296Z,13.50
2018-10-03T08:45:22.074Z,13.60
2018-10-03T08:47:49.797Z,13.50
2018-10-03T08:50:17.615Z,13.40
2018-10-03T08:52:45.370Z,14.00
2018-10-03T08:55:13.074Z,14.10
2018-10-03T08:57:42.670Z,14.50
2018-10-03T09:00:11.110Z,15.00
2018-10-03T09:02:38.858Z,14.90
2018-10-03T09:05:06.807Z,15.00
2018-10-03T09:07:34.492Z,15.10
2018-10-03T09:10:02.321Z,15.50
2018-10-03T09:12:30.038Z,15.60
2018-10-03T09:14:57.766Z,15.40
2018-10-03T09:17:25.558Z,15.30
2018-10-03T09:19:53.304Z,14.70
2018-10-03T09:25:31.689Z,14.70
2018-10-03T09:28:00.139Z,14.30
2018-10-03T09:30:27.813Z,14.50
2018-10-03T09:32:55.486Z,14.70
2018-10-03T09:35:23.188Z,15.10
2018-10-03T09:37:50.904Z,15.10
2018-10-03T09:40:18.594Z,15.10
2018-10-03T09:42:46.434Z,15.00
2018-10-03T09:45:14.105Z,15.20
2018-10-03T09:47:42.189Z,15.30
2018-10-03T09:50:10.672Z,15.60
2018-10-03T09:52:38.905Z,16.10
2018-10-03T09:55:07.094Z,16.10
2018-10-03T09:57:34.746Z,15.70
2018-10-03T10:00:02.653Z,15.70
2018-10-03T10:02:30.298Z,15.60
2018-10-03T10:04:57.964Z,15.90
2018-10-03T10:07:25.707Z,16.30
2018-10-03T10:09:53.437Z,16.10
2018-10-03T10:12:21.107Z,15.90
2018-10-03T10:14:49.881Z,16.10
2018-10-03T10:17:17.585Z,16.20
2018-10-03T10:19:45.254Z,16.30
2018-10-03T10:22:12.910Z,16.40
2018-10-03T10:24:40.576Z,16.20
2018-10-03T10:27:08.383Z,15.80
2018-10-03T10:29:36.121Z,15.30
2018-10-03T10:32:03.840Z,15.40
2018-10-03T10:34:31.730Z,15.40
2018-10-03T10:36:59.404Z,15.00
2018-10-03T10:39:27.088Z,15.10
2018-10-03T10:41:54.789Z,15.60
2018-10-03T10:44:22.457Z,16.30
2018-10-03T10:46:50.222Z,18.10
2018-10-03T10:49:17.892Z,17.30
2018-10-03T10:51:45.565Z,17.30
2018-10-03T10:54:13.837Z,16.90
2018-10-03T10:56:41.496Z,16.60
2018-10-03T10:59:09.161Z,16.00
2018-10-03T11:01:36.824Z,15.90
2018-10-03T11:04:04.460Z,15.70
2018-10-03T11:06:33.269Z,15.70
2018-10-03T11:09:00.921Z,15.80
2018-10-03T11:11:28.681Z,15.80
2018-10-03T11:13:56.354Z,15.80
2018-10-03T11:16:24.026Z,16.00
2018-10-03T11:18:51.741Z,16.20
2018-10-03T11:21:19.539Z,16.40
2018-10-03T11:23:47.889Z,17.30
2018-10-03T11:26:15.467Z,17.40
2018-10-03T11:28:43.179Z,17.10
2018-10-03T11:31:10.926Z,16.90
2018-10-03T11:33:38.674Z,16.90
2018-10-03T11:36:06.390Z,17.00
2018-10-03T11:38:34.053Z,16.80
2018-10-03T11:41:01.741Z,16.40
2018-10-03T11:43:29.399Z,16.90
2018-10-03T11:45:57.066Z,17.50
2018-10-03T11:48:24.790Z,17.90
2018-10-03T11:50:52.509Z,17.70
2018-10-03T11:53:20.178Z,17.50
2018-10-03T11:55:47.982Z,18.20
2018-10-03T11:58:15.715Z,18.70
2018-10-03T12:00:43.456Z,18.60
2018-10-03T12:03:11.192Z,18.70
2018-10-03T12:05:38.816Z,19.20
2018-10-03T12:08:07.121Z,19.30
2018-10-03T12:10:34.875Z,18.20
2018-10-03T12:13:02.544Z,17.50
2018-10-03T12:15:30.261Z,17.30
2018-10-03T12:17:57.924Z,17.70
2018-10-03T12:20:25.621Z,17.70
2018-10-03T12:22:53.301Z,18.60
2018-10-03T12:25:21.083Z,19.00
2018-10-03T12:27:48.750Z,19.40
2018-10-03T12:30:16.396Z,19.90
2018-10-03T12:32:44.086Z,20.00
2018-10-03T12:35:11.829Z,20.40
2018-10-03T12:37:39.505Z,20.40
2018-10-03T12:40:07.223Z,20.30
2018-10-03T12:42:34.874Z,20.10
2018-10-03T12:45:02.572Z,19.90
2018-10-03T12:47:30.291Z,20.00
2018-10-03T12:49:57.974Z,19.60
2018-10-03T12:52:25.625Z,19.50
2018-10-03T12:54:53.320Z,19.20
2018-10-03T12:57:21.137Z,19.10
2018-10-03T12:59:48.826Z,18.50
2018-10-03T13:02:16.513Z,18.00
2018-10-03T13:04:44.185Z,17.60
2018-10-03T13:07:11.957Z,17.70
2018-10-03T13:09:39.802Z,17.60
2018-10-03T13:12:07.534Z,17.30
2018-10-03T13:14:35.249Z,17.00
2018-10-03T13:17:03.036Z,17.40
2018-10-03T13:19:31.122Z,16.90
2018-10-03T13:21:58.972Z,17.00
2018-10-03T13:24:26.694Z,17.50
2018-10-03T13:26:54.565Z,17.60
2018-10-03T13:29:22.289Z,17.10
2018-10-03T13:31:50.819Z,17.10
2018-10-03T13:34:18.533Z,17.40
2018-10-03T13:36:46.244Z,17.70
2018-10-03T13:39:13.938Z,17.90
2018-10-03T13:41:41.653Z,18.40
2018-10-03T13:44:09.365Z,18.40
2018-10-03T13:46:37.188Z,18.20
2018-10-03T13:49:05.601Z,17.90
2018-10-03T13:51:33.345Z,17.30
2018-10-03T13:54:01.015Z,17.30
2018-10-03T13:56:28.716Z,17.10
2018-10-03T13:58:56.405Z,16.70
2018-10-03T14:01:24.834Z,16.60
2018-10-03T14:03:52.522Z,16.90
2018-10-03T14:06:20.202Z,17.10
2018-10-03T14:08:47.885Z,17.10
2018-10-03T14:11:15.606Z,17.20
2018-10-03T14:13:43.505Z,17.20
2018-10-03T14:16:11.251Z,17.10
2018-10-03T14:18:39.026Z,17.00
2018-10-03T14:21:06.876Z,16.50
2018-10-03T14:23:34.585Z,16.50
2018-10-03T14:26:02.301Z,16.40
2018-10-03T14:28:29.984Z,16.80
2018-10-03T14:30:57.693Z,17.20
2018-10-03T14:33:25.419Z,17.20
2018-10-03T14:35:53.267Z,17.40
2018-10-03T14:38:20.952Z,17.70
2018-10-03T14:40:48.677Z,17.60
2018-10-03T14:43:16.360Z,17.30
2018-10-03T14:45:44.029Z,17.10
2018-10-03T14:48:11.706Z,17.20
2018-10-03T14:50:39.403Z,17.90
2018-10-03T14:53:07.084Z,18.40
2018-10-03T14:55:34.763Z,18.60
2018-10-03T14:58:02.650Z,18.20
2018-10-03T15:00:30.333Z,17.60
2018-10-03T15:02:58.074Z,17.60
2018-10-03T15:05:25.933Z,17.60
2018-10-03T15:07:53.604Z,17.80
2018-10-03T15:10:21.316Z,17.80
2018-10-03T15:13:52.512Z,18.50
2018-10-03T15:16:20.181Z,18.40
2018-10-03T15:18:47.860Z,17.90
2018-10-03T15:21:15.972Z,17.70
2018-10-03T15:23:43.645Z,17.50
2018-10-03T15:26:11.337Z,17.10
2018-10-03T15:28:39.049Z,17.10
2018-10-03T15:31:06.746Z,16.60
2018-10-03T15:33:34.444Z,17.40
2018-10-03T15:36:02.232Z,17.10
2018-10-03T15:38:29.913Z,17.10
2018-10-03T15:40:57.644Z,17.10
2018-10-03T15:43:25.344Z,17.20
2018-10-03T15:45:53.044Z,17.30
2018-10-03T15:48:20.813Z,17.10
2018-10-03T15:50:48.600Z,17.00
2018-10-03T15:53:16.280Z,16.80
2018-10-03T15:55:43.981Z,16.80
2018-10-03T15:58:11.694Z,16.60
2018-10-03T16:00:39.425Z,16.60
2018-10-03T16:03:07.161Z,16.40
2018-10-03T16:05:34.863Z,16.20
2018-10-03T16:08:02.574Z,16.20
2018-10-03T16:10:30.281Z,16.20
2018-10-03T16:12:58.046Z,16.10
2018-10-03T16:15:25.796Z,16.20
2018-10-03T16:17:54.201Z,16.20
2018-10-03T16:20:22.115Z,16.10
2018-10-03T16:22:49.830Z,16.00
2018-10-03T16:25:17.544Z,16.00
2018-10-03T16:27:45.394Z,16.00
2018-10-03T16:30:13.078Z,15.90
2018-10-03T16:32:40.911Z,15.90
2018-10-03T16:35:08.618Z,15.90
2018-10-03T16:37:36.320Z,15.90
2018-10-03T16:40:04.490Z,15.80
2018-10-03T16:42:32.186Z,15.70
2018-10-03T16:44:59.868Z,15.50
2018-10-03T16:47:27.604Z,15.50
2018-10-03T16:49:55.349Z,15.30
2018-10-03T16:52:23.181Z,15.10
2018-10-03T16:54:50.953Z,15.00
2018-10-03T16:57:18.644Z,14.90
2018-10-03T16:59:46.915Z,14.70
2018-10-03T17:02:14.629Z,14.70
2018-10-03T17:04:42.358Z,14.50
2018-10-03T17:07:10.038Z,14.40
2018-10-03T17:09:37.700Z,14.40
2018-10-03T17:12:05.622Z,14.30
2018-10-03T17:14:34.696Z,14.20
2018-10-03T17:17:02.436Z,14.10
2018-10-03T17:19:30.175Z,14.10
2018-10-03T17:21:59.489Z,13.90
2018-10-03T17:24:28.937Z,13.80
2018-10-03T17:26:56.645Z,13.70
2018-10-03T17:29:24.342Z,13.70
2018-10-03T17:31:52.092Z,13.70
2018-10-03T17:34:20.203Z,13.80
2018-10-03T17:36:49.109Z,13.70
2018-10-03T17:39:17.463Z,13.70
2018-10-03T17:41:45.712Z,13.60
2018-10-03T17:44:14.400Z,13.50
2018-10-03T17:46:42.192Z,13.40
2018-10-03T17:49:09.873Z,13.30
2018-10-03T17:51:37.589Z,13.20
2018-10-03T17:54:05.265Z,13.10
2018-10-03T17:56:32.935Z,13.10
2018-10-03T17:59:01.627Z,13.00
2018-10-03T18:01:30.957Z,12.90
2018-10-03T18:03:58.654Z,12.80
2018-10-03T18:06:26.362Z,12.70
2018-10-03T18:11:31.699Z,12.60
2018-10-03T18:13:59.413Z,12.40
2018-10-03T18:16:27.061Z,12.40
2018-10-03T18:18:54.793Z,12.20
2018-10-03T18:21:22.410Z,12.10
2018-10-03T18:23:50.093Z,12.10
2018-10-03T18:26:24.234Z,12.10
2018-10-03T18:28:51.965Z,12.00
2018-10-03T18:31:19.865Z,11.90
2018-10-03T18:33:47.560Z,11.90
2018-10-03T18:36:15.297Z,11.80
2018-10-03T18:38:42.966Z,11.70
2018-10-03T18:41:10.712Z,11.70
2018-10-03T18:43:38.437Z,11.60
2018-10-03T18:46:06.766Z,11.60
2018-10-03T18:48:34.498Z,11.50
2018-10-03T18:51:02.168Z,11.50
2018-10-03T18:53:29.863Z,11.50
2018-10-03T18:55:57.582Z,11.50
2018-10-03T18:58:25.271Z,11.40
2018-10-03T19:00:53.024Z,11.40
2018-10-03T19:03:20.669Z,11.40
2018-10-03T19:05:48.415Z,11.30
2018-10-03T19:08:16.120Z,11.30
2018-10-03T19:10:43.784Z,11.30
2018-10-03T19:13:11.493Z,11.30
2018-10-03T19:15:39.154Z,11.20
2018-10-03T19:18:06.957Z,11.20
2018-10-03T19:20:34.980Z,11.10
2018-10-03T19:23:02.850Z,11.10
2018-10-03T19:25:30.581Z,11.10
2018-10-03T19:27:58.246Z,11.10
2018-10-03T19:30:25.946Z,11.00
2018-10-03T19:32:53.614Z,11.00
2018-10-03T19:35:21.292Z,10.90
2018-10-03T19:37:48.978Z,10.80
2018-10-03T19:40:16.704Z,10.80
2018-10-03T19:42:44.528Z,10.80
2018-10-03T19:45:12.201Z,10.80
2018-10-03T19:47:39.889Z,10.80
2018-10-03T19:50:07.583Z,10.70
2018-10-03T19:52:35.293Z,10.70
2018-10-03T19:55:02.983Z,10.60
2018-10-03T19:57:30.702Z,10.50
2018-10-03T19:59:58.421Z,10.40
2018-10-03T20:02:26.227Z,10.30
2018-10-03T20:04:53.897Z,10.30
2018-10-03T20:07:21.560Z,10.30
2018-10-03T20:09:49.227Z,10.20
2018-10-03T20:12:16.946Z,10.10
2018-10-03T20:14:44.649Z,10.20
2018-10-03T20:17:12.330Z,10.20
2018-10-03T20:19:39.994Z,10.20
2018-10-03T20:22:09.126Z,10.20
2018-10-03T20:24:37.100Z,10.10
2018-10-03T20:27:04.773Z,10.10
2018-10-03T20:29:32.560Z,10.10
2018-10-03T20:32:00.303Z,10.00
2018-10-03T20:34:27.945Z,10.00
2018-10-03T20:36:55.634Z,10.00
2018-10-03T20:39:23.374Z,10.00
2018-10-03T20:41:51.260Z,10.00
2018-10-03T20:44:18.881Z,10.00
2018-10-03T20:46:46.549Z,10.00
2018-10-03T20:49:14.201Z,9.90
2018-10-03T20:51:41.873Z,9.90
2018-10-03T20:54:09.579Z,9.90
2018-10-03T20:56:37.229Z,9.80
2018-10-03T20:59:04.934Z,9.80
2018-10-03T21:01:32.642Z,9.70
2018-10-03T21:04:00.327Z,9.70
2018-10-03T21:06:27.977Z,9.70
2018-10-03T21:08:55.651Z,9.60
2018-10-03T21:11:23.300Z,9.60
2018-10-03T21:13:50.962Z,9.50
2018-10-03T21:16:18.661Z,9.50
2018-10-03T21:18:46.349Z,9.50
2018-10-03T21:21:13.993Z,9.40
2018-10-03T21:23:41.695Z,9.40
2018-10-03T21:26:09.348Z,9.30
2018-10-03T21:31:11.277Z,9.20
2018-10-03T21:33:38.945Z,9.10
2018-10-03T21:36:07.072Z,9.00
2018-10-03T21:38:34.820Z,9.00
2018-10-03T21:41:02.491Z,9.00
2018-10-03T21:43:30.166Z,9.00
2018-10-03T21:45:57.831Z,8.90
2018-10-03T21:48:25.473Z,8.90
2018-10-03T21:50:53.154Z,8.90
2018-10-03T21:53:20.861Z,8.90
2018-10-03T21:55:48.539Z,8.90
2018-10-03T21:58:16.192Z,8.80
2018-10-03T22:00:49.249Z,8.80
2018-10-03T22:03:16.958Z,8.70
2018-10-03T22:05:44.644Z,8.80
2018-10-03T22:08:12.384Z,8.70
2018-10-03T22:10:40.044Z,8.70
2018-10-03T22:13:07.722Z,8.70
2018-10-03T22:15:35.397Z,8.70
2018-10-03T22:18:03.116Z,8.60
2018-10-03T22:20:30.790Z,8.70
2018-10-03T22:22:58.497Z,8.70
2018-10-03T22:25:26.130Z,8.70
2018-10-03T22:27:53.874Z,8.70
2018-10-03T22:30:21.517Z,8.60
2018-10-03T22:32:49.289Z,8.70
2018-10-03T22:35:16.924Z,8.80
2018-10-03T22:37:44.591Z,8.70
2018-10-03T22:40:12.274Z,8.70
2018-10-03T22:42:39.920Z,8.70
2018-10-03T22:45:07.576Z,8.70
2018-10-03T22:47:35.249Z,8.60
2018-10-03T22:50:02.907Z,8.60
2018-10-03T22:52:30.574Z,8.60
2018-10-03T22:54:58.261Z,8.50
2018-10-03T22:57:25.968Z,8.50
2018-10-03T22:59:54.237Z,8.50
2018-10-03T23:02:21.925Z,8.50
2018-10-03T23:04:49.609Z,8.40
2018-10-03T23:07:17.274Z,8.40
2018-10-03T23:09:45.035Z,8.40
2018-10-03T23:12:12.717Z,8.40
2018-10-03T23:14:40.400Z,8.40
2018-10-03T23:17:08.325Z,8.40
2018-10-03T23:19:35.988Z,8.40
2018-10-03T23:22:03.702Z,8.40
2018-10-03T23:24:31.370Z,8.30
2018-10-03T23:26:59.029Z,8.30
2018-10-03T23:29:26.694Z,8.30
2018-10-03T23:31:54.346Z,8.30
2018-10-03T23:34:22.070Z,8.30
2018-10-03T23:36:49.769Z,8.30
2018-10-03T23:39:17.469Z,8.30
2018-10-03T23:41:45.153Z,8.30
2018-10-03T23:44:12.819Z,8.30
2018-10-03T23:46:40.493Z,8.30
2018-10-03T23:49:08.157Z,8.30
2018-10-03T23:51:35.841Z,8.30
2018-10-03T23:54:03.548Z,8.40
2018-10-03T23:56:31.230Z,8.40
2018-10-03T23:58:58.927Z,8.50
